Time;durP1;ratioP1;P1;durP2;ratioP2;P2;SDS_P1;SDS_P2;PMS_P1;PMS_P2;Temp;Humidity;BMP_temperature;BMP_pressure;BME280_temperature;BME280_humidity;BME280_pressure;Samples;Min_cycle;Max_cycle;Signal;HPM_P1;HPM_P2
2021/01/09 00:00:36;;;;;;;95.60;49.78;;;-0.30;99.90;;;;;;6398909;22;20006;-57
2021/01/09 00:03:02;;;;;;;99.25;48.28;;;-0.30;99.90;;;;;;6398988;22;20343;-57
2021/01/09 00:05:27;;;;;;;98.43;48.53;;;-0.30;99.90;;;;;;6398789;22;20017;-57
2021/01/09 00:07:53;;;;;;;103.90;49.03;;;-0.30;99.90;;;;;;6398453;22;20495;-57
2021/01/09 00:10:19;;;;;;;99.90;47.22;;;-0.20;99.90;;;;;;6398721;22;20017;-57
2021/01/09 00:12:44;;;;;;;98.93;48.33;;;-0.20;99.90;;;;;;6398606;22;20012;-57
2021/01/09 00:15:11;;;;;;;107.75;48.13;;;-0.20;99.90;;;;;;6398739;22;20013;-57
2021/01/09 00:17:38;;;;;;;100.28;48.88;;;-0.20;99.90;;;;;;6398928;22;20048;-57
2021/01/09 00:20:14;;;;;;;98.03;49.58;;;-0.20;99.90;;;;;;6398810;22;20012;-57
2021/01/09 00:22:41;;;;;;;98.20;49.10;;;-0.20;99.90;;;;;;6397022;22;20473;-57
2021/01/09 00:25:09;;;;;;;99.82;49.15;;;-0.10;99.90;;;;;;6398823;22;20006;-57
2021/01/09 00:27:34;;;;;;;105.13;49.58;;;-0.20;99.90;;;;;;6397776;22;20002;-57
2021/01/09 00:30:01;;;;;;;104.28;47.90;;;-0.20;99.90;;;;;;6398558;22;20005;-57
2021/01/09 00:32:26;;;;;;;96.03;49.30;;;-0.20;99.90;;;;;;6398488;22;20006;-57
2021/01/09 00:34:52;;;;;;;101.13;48.53;;;-0.20;99.90;;;;;;6398247;22;20067;-56
2021/01/09 00:37:19;;;;;;;107.40;51.45;;;-0.20;99.90;;;;;;6398597;22;20379;-57
2021/01/09 00:39:47;;;;;;;100.20;47.58;;;-0.20;99.90;;;;;;6396538;22;20377;-57
2021/01/09 00:42:13;;;;;;;99.30;48.38;;;-0.20;99.90;;;;;;6398428;22;20006;-56
2021/01/09 00:44:39;;;;;;;109.10;50.03;;;-0.20;99.90;;;;;;6398706;22;20377;-57
2021/01/09 00:47:05;;;;;;;101.32;47.72;;;-0.20;99.90;;;;;;6398386;22;20443;-57
2021/01/09 00:49:30;;;;;;;115.43;48.95;;;-0.20;99.90;;;;;;6398266;22;20085;-57
2021/01/09 00:51:56;;;;;;;108.15;50.03;;;-0.20;99.90;;;;;;6398399;22;20017;-57
2021/01/09 00:54:22;;;;;;;102.65;49.85;;;-0.20;99.90;;;;;;6398397;22;20338;-56
2021/01/09 00:56:54;;;;;;;101.45;48.47;;;-0.20;99.90;;;;;;6398278;22;20010;-57
2021/01/09 00:59:20;;;;;;;103.25;47.13;;;-0.20;99.90;;;;;;6398516;22;20013;-57
2021/01/09 01:01:49;;;;;;;103.57;49.65;;;-0.20;99.90;;;;;;6398166;22;20038;-57
2021/01/09 01:04:14;;;;;;;98.53;47.50;;;-0.20;99.90;;;;;;6396890;22;20387;-57
2021/01/09 01:06:40;;;;;;;106.50;46.50;;;-0.20;99.90;;;;;;6398503;22;20016;-57
2021/01/09 01:09:06;;;;;;;104.78;48.35;;;-0.20;99.90;;;;;;6398090;22;20002;-56
2021/01/09 01:11:32;;;;;;;103.38;47.20;;;-0.20;99.90;;;;;;6398085;22;20001;-57
2021/01/09 01:13:58;;;;;;;92.28;45.33;;;-0.20;99.90;;;;;;6397995;22;20013;-57
2021/01/09 01:16:24;;;;;;;102.38;46.10;;;-0.20;99.90;;;;;;6397834;22;20006;-57
2021/01/09 01:18:53;;;;;;;100.70;47.72;;;-0.20;99.90;;;;;;6398005;22;20434;-57
2021/01/09 01:21:19;;;;;;;104.68;48.85;;;-0.20;99.90;;;;;;6398071;22;20018;-57
2021/01/09 01:23:45;;;;;;;95.55;44.13;;;-0.20;99.90;;;;;;6397718;22;20400;-57
2021/01/09 01:26:11;;;;;;;91.38;44.95;;;-0.20;99.90;;;;;;6397881;22;20057;-57
2021/01/09 01:28:38;;;;;;;104.65;46.00;;;-0.30;99.90;;;;;;6398096;22;20010;-57
2021/01/09 01:31:05;;;;;;;96.40;44.90;;;-0.30;99.90;;;;;;6397443;22;20014;-57
2021/01/09 01:33:30;;;;;;;94.63;46.28;;;-0.30;99.90;;;;;;6398042;22;20517;-57
2021/01/09 01:35:57;;;;;;;97.63;45.58;;;-0.30;99.90;;;;;;6398134;22;20001;-57
2021/01/09 01:38:23;;;;;;;95.05;46.20;;;-0.40;99.90;;;;;;6397977;22;20009;-57
2021/01/09 01:40:49;;;;;;;91.10;45.53;;;-0.40;99.90;;;;;;6397858;22;20324;-57
2021/01/09 01:43:15;;;;;;;98.38;45.08;;;-0.40;99.90;;;;;;6397788;22;20044;-57
2021/01/09 01:45:42;;;;;;;96.60;47.88;;;-0.50;99.90;;;;;;6397692;22;20001;-57
2021/01/09 01:48:11;;;;;;;100.85;45.95;;;-0.50;99.90;;;;;;6397900;22;20019;-57
2021/01/09 01:50:41;;;;;;;98.15;45.53;;;-0.60;99.90;;;;;;6397863;22;20439;-56
2021/01/09 01:53:07;;;;;;;96.90;47.30;;;-0.60;99.90;;;;;;6397629;22;20002;-56
2021/01/09 01:55:34;;;;;;;98.10;47.05;;;-0.60;99.90;;;;;;6397667;22;20002;-57
2021/01/09 01:58:00;;;;;;;93.80;47.25;;;-0.70;99.90;;;;;;6397659;22;20011;-57
2021/01/09 02:00:27;;;;;;;101.82;50.13;;;-0.70;99.90;;;;;;6397605;22;20083;-57
2021/01/09 02:03:00;;;;;;;95.53;45.15;;;-0.80;99.90;;;;;;6397512;22;20001;-57
2021/01/09 02:05:32;;;;;;;105.55;48.17;;;-0.80;99.90;;;;;;6397459;22;20006;-57
2021/01/09 02:08:00;;;;;;;;;;;-0.90;99.90;;;;;;6398203;22;20082;-57
2021/01/09 02:10:26;;;;;;;93.53;44.83;;;-0.90;99.90;;;;;;6397513;22;19948;-57
2021/01/09 02:13:02;;;;;;;95.53;45.58;;;-0.90;99.90;;;;;;6397306;22;20457;-56
2021/01/09 02:15:29;;;;;;;97.45;46.75;;;-1.00;99.90;;;;;;6397377;22;20080;-57
2021/01/09 02:17:56;;;;;;;100.38;45.47;;;-1.10;99.90;;;;;;6397524;22;20005;-57
2021/01/09 02:20:23;;;;;;;100.75;47.00;;;-1.10;99.90;;;;;;6397752;22;20006;-56
2021/01/09 02:22:52;;;;;;;110.80;49.92;;;-1.10;99.90;;;;;;6397421;22;20458;-57
2021/01/09 02:25:20;;;;;;;99.50;47.08;;;-1.30;99.90;;;;;;6397348;22;20012;-57
2021/01/09 02:27:46;;;;;;;102.38;46.55;;;-1.30;99.90;;;;;;6397591;22;19998;-57
2021/01/09 02:30:15;;;;;;;101.63;46.42;;;-1.40;99.90;;;;;;6397318;22;20018;-57
2021/01/09 02:33:01;;;;;;;102.88;47.42;;;-1.40;99.90;;;;;;6397770;22;20063;-57
2021/01/09 02:35:29;;;;;;;89.80;43.45;;;-1.50;99.90;;;;;;6397679;22;20017;-57
2021/01/09 02:37:55;;;;;;;104.85;46.45;;;-1.60;99.90;;;;;;6397505;22;19997;-57
2021/01/09 02:40:21;;;;;;;98.82;45.40;;;-1.60;99.90;;;;;;6397528;22;20006;-56
2021/01/09 02:42:47;;;;;;;89.57;42.97;;;-1.60;99.90;;;;;;6397539;22;20115;-57
2021/01/09 02:45:14;;;;;;;97.88;45.20;;;-1.70;99.90;;;;;;6397412;22;20010;-57
2021/01/09 02:47:39;;;;;;;93.43;44.03;;;-1.70;99.90;;;;;;6397726;22;19998;-57
2021/01/09 02:50:06;;;;;;;105.82;48.13;;;-1.70;99.90;;;;;;6397842;22;20017;-58
2021/01/09 02:52:32;;;;;;;95.22;45.45;;;-1.70;99.90;;;;;;6399395;22;20001;-57
2021/01/09 02:54:58;;;;;;;101.35;44.88;;;-1.70;99.90;;;;;;6399519;22;20492;-56
2021/01/09 02:57:24;;;;;;;93.43;44.90;;;-1.80;99.90;;;;;;6399380;22;20002;-57
2021/01/09 02:59:50;;;;;;;99.22;44.80;;;-1.80;99.90;;;;;;6399537;22;20063;-57
2021/01/09 03:02:15;;;;;;;99.82;44.97;;;-1.80;99.90;;;;;;6398379;22;20000;-57
2021/01/09 03:04:41;;;;;;;92.53;45.13;;;-1.80;99.90;;;;;;6398655;22;20013;-58
2021/01/09 03:07:07;;;;;;;97.10;45.22;;;-1.90;99.90;;;;;;6399605;22;20085;-57
2021/01/09 03:09:33;;;;;;;97.63;45.45;;;-1.80;99.90;;;;;;6399353;22;20595;-57
2021/01/09 03:11:58;;;;;;;95.10;45.38;;;-1.80;99.90;;;;;;6399067;22;20435;-57
2021/01/09 03:14:24;;;;;;;92.90;44.05;;;-1.80;99.90;;;;;;6399353;22;20009;-57
2021/01/09 03:16:50;;;;;;;97.05;44.33;;;-1.90;99.90;;;;;;6399366;22;20020;-56
2021/01/09 03:19:16;;;;;;;93.93;43.88;;;-1.90;99.90;;;;;;6399186;22;20016;-56
2021/01/09 03:21:42;;;;;;;91.45;43.35;;;-1.90;99.90;;;;;;6398966;22;20088;-56
2021/01/09 03:24:08;;;;;;;87.72;42.05;;;-1.90;99.90;;;;;;6399287;22;20469;-56
2021/01/09 03:26:34;;;;;;;96.20;43.80;;;-1.90;99.90;;;;;;6399004;22;20008;-57
2021/01/09 03:29:00;;;;;;;84.57;41.40;;;-2.00;99.90;;;;;;6399069;22;20370;-57
2021/01/09 03:31:29;;;;;;;103.43;45.53;;;-2.00;99.90;;;;;;6399152;22;20380;-57
2021/01/09 03:33:55;;;;;;;89.80;42.90;;;-2.00;99.90;;;;;;6399080;22;20009;-57
2021/01/09 03:36:20;;;;;;;106.15;45.90;;;-2.00;99.90;;;;;;6399010;22;20005;-57
2021/01/09 03:38:46;;;;;;;91.07;44.55;;;-1.90;99.90;;;;;;6399183;22;20002;-57
2021/01/09 03:41:12;;;;;;;95.82;43.55;;;-1.80;99.90;;;;;;6398887;22;20005;-57
2021/01/09 03:43:37;;;;;;;97.75;45.70;;;-1.70;99.90;;;;;;6398919;22;20028;-57
2021/01/09 03:46:03;;;;;;;94.10;45.13;;;-1.60;99.90;;;;;;6399042;22;20006;-57
2021/01/09 03:48:29;;;;;;;96.53;45.38;;;-1.50;99.90;;;;;;6399140;22;20006;-57
2021/01/09 03:50:55;;;;;;;99.05;45.67;;;-1.50;99.90;;;;;;6399255;22;20252;-57
2021/01/09 03:53:21;;;;;;;97.30;44.65;;;-1.40;99.90;;;;;;6399148;22;20001;-57
2021/01/09 03:55:46;;;;;;;96.15;43.92;;;-1.30;99.90;;;;;;6398902;22;20029;-57
2021/01/09 03:58:12;;;;;;;95.05;45.95;;;-1.30;99.90;;;;;;6398895;22;20005;-57
2021/01/09 04:00:38;;;;;;;95.45;44.10;;;-1.20;99.90;;;;;;6398918;22;20008;-56
2021/01/09 04:03:03;;;;;;;106.75;46.67;;;-1.20;99.90;;;;;;6398199;22;20580;-57
2021/01/09 04:05:29;;;;;;;109.15;47.67;;;-1.10;99.90;;;;;;6398778;22;20059;-57
2021/01/09 04:07:55;;;;;;;97.70;44.92;;;-1.00;99.90;;;;;;6398868;22;20001;-57
2021/01/09 04:10:21;;;;;;;100.07;46.90;;;-1.00;99.90;;;;;;6398674;22;20075;-56
2021/01/09 04:12:46;;;;;;;96.65;45.50;;;-1.00;99.90;;;;;;6398800;22;20025;-56
2021/01/09 04:15:12;;;;;;;112.97;49.13;;;-0.90;99.90;;;;;;6398730;22;20441;-57
2021/01/09 04:17:39;;;;;;;103.15;46.40;;;-0.80;99.90;;;;;;6398926;22;20002;-56
2021/01/09 04:20:06;;;;;;;105.93;47.28;;;-0.80;99.90;;;;;;6398683;22;20028;-56
2021/01/09 04:22:31;;;;;;;103.13;48.78;;;-0.70;99.90;;;;;;6398317;22;20093;-57
2021/01/09 04:24:57;;;;;;;99.68;45.10;;;-0.70;99.90;;;;;;6398470;22;20384;-57
2021/01/09 04:27:23;;;;;;;107.28;48.05;;;-0.60;99.90;;;;;;6398626;22;20055;-57
2021/01/09 04:29:48;;;;;;;104.55;47.58;;;-0.60;99.90;;;;;;6398540;22;20037;-57
2021/01/09 04:32:14;;;;;;;98.82;45.22;;;-0.60;99.90;;;;;;6398235;22;20044;-56
2021/01/09 04:34:40;;;;;;;99.75;46.83;;;-0.70;99.90;;;;;;6398656;22;20002;-56
2021/01/09 04:37:06;;;;;;;104.72;46.90;;;-0.70;99.90;;;;;;6398812;22;20009;-57
2021/01/09 04:39:32;;;;;;;99.75;48.50;;;-0.70;99.90;;;;;;6398332;22;20009;-57
2021/01/09 04:41:59;;;;;;;95.97;45.67;;;-0.60;99.90;;;;;;6398431;22;20006;-57
2021/01/09 04:44:24;;;;;;;99.90;47.03;;;-0.70;99.90;;;;;;6398432;22;20488;-57
2021/01/09 04:46:55;;;;;;;104.28;47.92;;;-0.70;99.90;;;;;;6398508;22;20006;-57
2021/01/09 04:49:25;;;;;;;103.85;48.45;;;-0.60;99.90;;;;;;6398268;22;20101;-57
2021/01/09 04:51:53;;;;;;;112.03;49.22;;;-0.60;99.90;;;;;;6398566;22;20084;-57
2021/01/09 04:54:23;;;;;;;102.72;47.67;;;-0.50;99.90;;;;;;6398630;22;19997;-57
2021/01/09 04:56:51;;;;;;;100.82;47.53;;;-0.40;99.90;;;;;;6398354;22;20006;-57
2021/01/09 04:59:19;;;;;;;108.40;47.20;;;-0.30;99.90;;;;;;6398048;22;20351;-57
2021/01/09 05:01:46;;;;;;;98.72;46.70;;;-0.30;99.90;;;;;;6398355;22;20002;-57
2021/01/09 05:04:13;;;;;;;105.65;48.53;;;-0.30;99.90;;;;;;6398117;22;20127;-57
2021/01/09 05:06:39;;;;;;;101.82;47.65;;;-0.30;99.90;;;;;;6398543;22;20006;-57
2021/01/09 05:09:07;;;;;;;98.07;48.58;;;-0.30;99.90;;;;;;6396781;22;20367;-57
2021/01/09 05:11:35;;;;;;;100.90;47.95;;;-0.30;99.90;;;;;;6398349;22;20012;-57
2021/01/09 05:14:02;;;;;;;102.90;46.97;;;-0.30;99.90;;;;;;6397743;22;20051;-57
2021/01/09 05:16:28;;;;;;;99.88;47.95;;;-0.30;99.90;;;;;;6398092;22;20017;-57
2021/01/09 05:18:54;;;;;;;120.20;49.67;;;-0.30;99.90;;;;;;6397865;22;20002;-57
2021/01/09 05:21:20;;;;;;;104.03;45.83;;;-0.30;99.90;;;;;;6397647;22;20037;-57
2021/01/09 05:24:05;;;;;;;104.88;48.15;;;-0.40;99.90;;;;;;6398010;22;20017;-57
2021/01/09 05:26:32;;;;;;;107.50;47.03;;;-0.40;99.90;;;;;;6397765;22;20035;-56
2021/01/09 05:29:00;;;;;;;100.13;47.42;;;-0.40;99.90;;;;;;6397993;22;20454;-57
2021/01/09 05:31:27;;;;;;;98.72;46.92;;;-0.30;99.90;;;;;;6397672;22;20521;-57
2021/01/09 05:33:54;;;;;;;104.35;47.13;;;-0.40;99.90;;;;;;6397934;22;20015;-57
2021/01/09 05:36:21;;;;;;;98.35;46.92;;;-0.40;99.90;;;;;;6397856;22;20002;-57
2021/01/09 05:38:48;;;;;;;100.63;45.42;;;-0.40;99.90;;;;;;6397691;22;20061;-57
2021/01/09 05:41:19;;;;;;;104.97;44.85;;;-0.50;99.90;;;;;;6397688;22;20005;-57
2021/01/09 05:44:06;;;;;;;91.18;45.47;;;-0.40;99.90;;;;;;6397771;22;20001;-56
2021/01/09 05:46:37;;;;;;;96.53;43.42;;;-0.40;99.90;;;;;;6397768;22;20438;-56
2021/01/09 05:49:04;;;;;;;95.32;44.95;;;-0.40;99.90;;;;;;6397751;22;20013;-57
2021/01/09 05:51:35;;;;;;;95.45;45.90;;;-0.40;99.90;;;;;;6397424;22;20443;-57
2021/01/09 05:54:01;;;;;;;99.47;46.42;;;-0.40;99.90;;;;;;6397491;22;20009;-57
2021/01/09 05:56:27;;;;;;;97.68;44.30;;;-0.30;99.90;;;;;;6397654;22;20025;-56
2021/01/09 05:58:55;;;;;;;100.32;43.05;;;-0.30;99.90;;;;;;6397917;22;20005;-56
2021/01/09 06:01:28;;;;;;;93.28;43.10;;;-0.30;99.90;;;;;;6397772;22;20010;-56
2021/01/09 06:04:22;;;;;;;89.22;42.90;;;-0.30;99.90;;;;;;6397819;22;20008;-57
2021/01/09 06:06:57;;;;;;;100.50;44.20;;;-0.20;99.90;;;;;;6391557;22;20014;-57
2021/01/09 06:09:25;;;;;;;93.80;42.85;;;-0.10;99.90;;;;;;6397726;22;20686;-57
2021/01/09 06:11:55;;;;;;;92.43;42.15;;;-0.10;99.90;;;;;;6397788;22;20006;-57
2021/01/09 06:14:26;;;;;;;104.28;45.85;;;-0.10;99.90;;;;;;6397128;22;20401;-57
2021/01/09 06:16:54;;;;;;;94.03;45.95;;;0.00;99.90;;;;;;6397405;22;20374;-57
2021/01/09 06:19:23;;;;;;;98.95;44.92;;;0.00;99.90;;;;;;6397523;22;19993;-57
2021/01/09 06:21:54;;;;;;;97.30;44.70;;;0.00;99.90;;;;;;6397229;22;20092;-57
2021/01/09 06:24:23;;;;;;;96.63;44.40;;;0.00;99.90;;;;;;6397067;22;20050;-57
2021/01/09 06:26:50;;;;;;;97.45;44.60;;;0.00;99.90;;;;;;6397287;22;20057;-57
2021/01/09 06:29:25;;;;;;;102.00;44.80;;;0.10;99.90;;;;;;6397261;22;19998;-57
2021/01/09 06:31:55;;;;;;;98.72;45.53;;;0.10;99.90;;;;;;6397527;22;20006;-57
2021/01/09 06:34:24;;;;;;;103.30;45.40;;;0.10;99.90;;;;;;6397410;22;20020;-57
2021/01/09 06:37:04;;;;;;;97.13;45.70;;;0.20;99.90;;;;;;6397332;22;20431;-57
2021/01/09 06:39:39;;;;;;;111.60;48.22;;;0.20;99.90;;;;;;6397177;22;20382;-56
2021/01/09 06:42:08;;;;;;;102.93;46.03;;;0.10;99.90;;;;;;6397573;22;20037;-57
2021/01/09 06:44:34;;;;;;;101.32;47.35;;;0.10;99.90;;;;;;6397110;22;20084;-57
2021/01/09 06:47:01;;;;;;;97.13;45.97;;;0.20;99.90;;;;;;6397465;22;20064;-57
2021/01/09 06:49:27;;;;;;;92.88;44.15;;;0.20;99.90;;;;;;6397212;22;20010;-57
2021/01/09 06:52:06;;;;;;;98.10;46.65;;;0.20;99.90;;;;;;6397324;22;20013;-57
2021/01/09 06:54:45;;;;;;;95.18;47.15;;;0.20;99.90;;;;;;6397080;22;19998;-57
2021/01/09 06:57:19;;;;;;;101.32;48.03;;;0.20;99.90;;;;;;6397229;22;20358;-57
2021/01/09 06:59:46;;;;;;;96.50;45.40;;;0.30;99.90;;;;;;6395711;22;20064;-57
2021/01/09 07:02:15;;;;;;;100.50;45.88;;;0.20;99.90;;;;;;6397042;22;20450;-57
2021/01/09 07:05:00;;;;;;;95.75;44.58;;;0.30;99.90;;;;;;6397248;22;20009;-57
2021/01/09 07:07:27;;;;;;;109.40;47.58;;;0.30;99.90;;;;;;6396983;22;20095;-57
2021/01/09 07:10:07;;;;;;;111.50;47.67;;;0.30;99.90;;;;;;6397285;22;20573;-57
2021/01/09 07:12:33;;;;;;;97.45;44.70;;;0.20;99.90;;;;;;6397148;22;20077;-57
2021/01/09 07:15:04;;;;;;;99.28;44.80;;;0.30;99.90;;;;;;6397364;22;20461;-57
2021/01/09 07:17:34;;;;;;;99.78;46.40;;;0.30;99.90;;;;;;6396961;22;20055;-57
2021/01/09 07:20:03;;;;;;;98.78;46.13;;;0.40;99.90;;;;;;6397108;22;19998;-57
2021/01/09 07:22:31;;;;;;;93.50;45.70;;;0.40;99.90;;;;;;6395500;22;20024;-57
2021/01/09 07:24:59;;;;;;;87.30;44.85;;;0.40;99.90;;;;;;6397312;22;20010;-56
2021/01/09 07:27:34;;;;;;;89.43;44.35;;;0.30;99.90;;;;;;6397077;22;20708;-57
2021/01/09 07:30:19;;;;;;;93.25;43.90;;;0.40;99.90;;;;;;6397078;22;20052;-57
2021/01/09 07:32:49;;;;;;;89.38;41.00;;;0.50;99.90;;;;;;6397184;22;20065;-57
2021/01/09 07:35:33;;;;;;;86.22;40.83;;;0.50;99.90;;;;;;6397257;22;20009;-57
2021/01/09 07:38:01;;;;;;;84.35;42.17;;;0.50;99.90;;;;;;6399126;22;20002;-56
2021/01/09 07:40:50;;;;;;;89.68;43.03;;;0.50;99.90;;;;;;6398936;22;20006;-57
2021/01/09 07:43:42;;;;;;;83.25;39.55;;;0.60;99.90;;;;;;6399073;22;19997;-57
2021/01/09 07:46:27;;;;;;;85.65;40.05;;;0.60;99.90;;;;;;6399153;22;20084;-57
2021/01/09 07:48:53;;;;;;;85.13;41.40;;;0.60;99.90;;;;;;6395663;22;20002;-58
2021/01/09 07:51:39;;;;;;;83.78;41.17;;;0.50;99.90;;;;;;6397693;22;20104;-58
2021/01/09 07:54:06;;;;;;;83.22;38.92;;;0.70;99.90;;;;;;6396266;22;20068;-57
2021/01/09 07:56:38;;;;;;;90.70;41.63;;;0.70;99.90;;;;;;6398484;22;20446;-58
2021/01/09 07:59:07;;;;;;;86.07;38.70;;;0.70;99.90;;;;;;6398834;22;20009;-57
2021/01/09 08:01:42;;;;;;;78.88;39.60;;;0.70;99.90;;;;;;6397120;22;20062;-58
2021/01/09 08:04:12;;;;;;;76.97;37.63;;;0.70;99.90;;;;;;6396939;22;20002;-58
2021/01/09 08:06:39;;;;;;;80.38;38.58;;;0.80;99.90;;;;;;6397158;22;20009;-59
2021/01/09 08:09:05;;;;;;;79.32;39.63;;;0.90;99.90;;;;;;6396599;22;19998;-58
2021/01/09 08:11:31;;;;;;;81.97;39.55;;;0.90;99.90;;;;;;6396936;22;20029;-58
2021/01/09 08:14:01;;;;;;;88.47;41.78;;;1.00;99.90;;;;;;6396911;22;20001;-58
2021/01/09 08:16:27;;;;;;;84.78;40.05;;;1.00;99.90;;;;;;6396723;22;20082;-59
2021/01/09 08:18:53;;;;;;;85.90;41.35;;;1.00;99.90;;;;;;6396016;22;20010;-57
2021/01/09 08:21:21;;;;;;;89.85;42.83;;;1.00;99.90;;;;;;6396336;22;20014;-57
2021/01/09 08:23:54;;;;;;;81.18;39.35;;;1.00;99.90;;;;;;6396839;22;20522;-59
2021/01/09 08:26:21;;;;;;;;;;;1.10;99.90;;;;;;6397813;22;20088;-58
2021/01/09 08:28:49;;;;;;;81.00;38.20;;;1.00;99.90;;;;;;6396813;22;19912;-58
2021/01/09 08:31:15;;;;;;;79.88;40.97;;;1.20;99.90;;;;;;6396513;22;20018;-58
2021/01/09 08:33:47;;;;;;;86.57;40.40;;;1.30;99.90;;;;;;6395654;22;20009;-59
2021/01/09 08:36:15;;;;;;;91.35;43.40;;;1.20;99.90;;;;;;6396943;22;20010;-56
2021/01/09 08:38:42;;;;;;;85.43;41.92;;;1.20;99.90;;;;;;6396615;22;19998;-55
2021/01/09 08:41:08;;;;;;;86.07;42.17;;;1.20;99.90;;;;;;6396476;22;20446;-56
2021/01/09 08:43:33;;;;;;;87.38;42.40;;;1.30;99.90;;;;;;6395754;22;20002;-57
2021/01/09 08:45:59;;;;;;;88.07;42.20;;;1.20;99.90;;;;;;6393087;22;20364;-59
2021/01/09 08:48:35;;;;;;;83.22;41.58;;;1.30;99.90;;;;;;6393802;22;20432;-59
2021/01/09 08:51:09;;;;;;;78.13;39.00;;;1.30;99.90;;;;;;6396461;22;20104;-59
2021/01/09 08:53:38;;;;;;;84.05;39.75;;;1.40;99.90;;;;;;6396490;22;20002;-60
2021/01/09 08:56:05;;;;;;;86.95;40.25;;;1.40;99.90;;;;;;6396366;22;19998;-59
2021/01/09 08:58:31;;;;;;;80.28;38.63;;;1.50;99.90;;;;;;6394886;22;20005;-59
2021/01/09 09:01:02;;;;;;;79.50;39.67;;;1.50;99.90;;;;;;6395923;22;20511;-59
2021/01/09 09:03:30;;;;;;;73.60;38.13;;;1.60;99.90;;;;;;6395642;22;20002;-59
2021/01/09 09:05:56;;;;;;;72.40;37.33;;;1.50;99.90;;;;;;6396330;22;20048;-59
2021/01/09 09:08:27;;;;;;;74.90;38.10;;;1.60;99.90;;;;;;6395882;22;20008;-59
2021/01/09 09:10:54;;;;;;;81.25;39.35;;;1.70;99.90;;;;;;6394194;22;20017;-59
2021/01/09 09:13:22;;;;;;;80.45;38.90;;;1.70;99.90;;;;;;6396113;22;20431;-59
2021/01/09 09:15:49;;;;;;;73.60;37.17;;;1.70;99.90;;;;;;6396009;22;20092;-59
2021/01/09 09:18:16;;;;;;;75.47;37.58;;;1.70;99.90;;;;;;6395715;22;19994;-60
2021/01/09 09:20:48;;;;;;;71.22;36.60;;;1.70;99.90;;;;;;6395412;22;20355;-59
2021/01/09 09:23:25;;;;;;;59.85;28.55;;;1.70;99.90;;;;;;6393994;22;20032;-59
2021/01/09 09:26:10;;;;;;;77.90;36.78;;;1.60;99.90;;;;;;6395907;22;20006;-59
2021/01/09 09:28:46;;;;;;;72.03;35.92;;;1.70;99.90;;;;;;6396238;22;20001;-59
2021/01/09 09:31:42;;;;;;;69.72;34.92;;;1.70;99.90;;;;;;6395845;22;20022;-59
2021/01/09 09:34:15;;;;;;;71.20;36.55;;;1.70;99.90;;;;;;6382222;22;20013;-59
2021/01/09 09:36:50;;;;;;;72.68;37.38;;;1.80;99.90;;;;;;6396270;22;20358;-59
2021/01/09 09:39:21;;;;;;;67.95;36.95;;;1.80;99.90;;;;;;6395324;22;20002;-59
2021/01/09 09:41:59;;;;;;;66.13;33.97;;;1.90;99.90;;;;;;6396007;22;20013;-59
2021/01/09 09:44:44;;;;;;;68.20;34.55;;;1.80;99.90;;;;;;6395604;22;20012;-60
2021/01/09 09:47:24;;;;;;;64.57;35.45;;;1.70;99.90;;;;;;6395861;22;20009;-60
2021/01/09 09:49:49;;;;;;;68.63;34.67;;;1.70;99.90;;;;;;6395599;22;20010;-60
2021/01/09 09:52:21;;;;;;;63.08;33.55;;;1.70;99.90;;;;;;6395996;22;20059;-60
2021/01/09 09:55:03;;;;;;;68.45;33.92;;;1.80;99.90;;;;;;6396118;22;20009;-59
2021/01/09 09:57:28;;;;;;;64.38;32.47;;;1.80;99.90;;;;;;6395887;22;20033;-59
2021/01/09 10:00:06;;;;;;;62.50;30.95;;;1.90;99.90;;;;;;6395730;22;20334;-60
2021/01/09 10:02:52;;;;;;;67.47;33.85;;;1.90;99.90;;;;;;6395556;22;20018;-60
2021/01/09 10:05:18;;;;;;;60.50;30.60;;;1.90;99.90;;;;;;6395929;22;20001;-60
2021/01/09 10:07:44;;;;;;;74.68;32.58;;;1.80;99.90;;;;;;6394093;22;20009;-59
2021/01/09 10:10:17;;;;;;;60.38;31.80;;;1.80;99.90;;;;;;6395751;22;20350;-59
2021/01/09 10:12:57;;;;;;;56.40;30.42;;;1.80;99.90;;;;;;6395582;22;20014;-58
2021/01/09 10:15:23;;;;;;;59.88;31.58;;;1.80;99.90;;;;;;6396872;22;20060;-59
2021/01/09 10:17:51;;;;;;;58.85;30.42;;;1.70;99.90;;;;;;6396880;22;20063;-58
2021/01/09 10:20:17;;;;;;;69.10;34.92;;;1.70;99.90;;;;;;6396563;22;20458;-59
2021/01/09 10:22:43;;;;;;;61.67;31.85;;;1.70;99.90;;;;;;6397369;22;20021;-59
2021/01/09 10:25:09;;;;;;;63.10;31.77;;;1.70;99.90;;;;;;6397562;22;20500;-58
2021/01/09 10:27:34;;;;;;;66.60;32.53;;;1.70;99.90;;;;;;6397610;22;20006;-58
2021/01/09 10:30:01;;;;;;;70.53;32.67;;;1.80;99.90;;;;;;6397492;22;20071;-59
2021/01/09 10:32:28;;;;;;;63.10;30.85;;;1.90;99.90;;;;;;6397411;22;20059;-59
2021/01/09 10:34:54;;;;;;;55.75;27.85;;;2.00;99.90;;;;;;6397503;22;20006;-59
2021/01/09 10:37:19;;;;;;;52.05;27.88;;;1.90;99.90;;;;;;6397557;22;20034;-57
2021/01/09 10:39:45;;;;;;;54.10;27.52;;;1.90;99.90;;;;;;6397442;22;20001;-59
2021/01/09 10:42:11;;;;;;;52.53;27.20;;;1.90;99.90;;;;;;6397617;22;20070;-59
2021/01/09 10:44:37;;;;;;;52.20;28.20;;;1.90;99.90;;;;;;6398012;22;20380;-56
2021/01/09 10:47:03;;;;;;;56.10;27.00;;;1.90;99.90;;;;;;6397593;22;19994;-56
2021/01/09 10:49:29;;;;;;;55.88;28.08;;;1.90;99.90;;;;;;6397451;22;20017;-59
2021/01/09 10:51:54;;;;;;;54.28;27.27;;;1.90;99.90;;;;;;6397507;22;20012;-59
2021/01/09 10:54:20;;;;;;;45.88;24.38;;;1.90;99.90;;;;;;6397374;22;20002;-59
2021/01/09 10:56:46;;;;;;;59.60;28.30;;;1.90;99.90;;;;;;6397205;22;20005;-57
2021/01/09 10:59:13;;;;;;;49.65;25.13;;;1.80;99.90;;;;;;6397039;22;20401;-57
2021/01/09 11:01:39;;;;;;;51.33;26.38;;;1.80;99.90;;;;;;6397761;22;20059;-56
2021/01/09 11:04:05;;;;;;;51.65;26.10;;;1.70;99.90;;;;;;6397411;22;20455;-59
2021/01/09 11:06:31;;;;;;;51.03;26.85;;;1.60;99.90;;;;;;6397498;22;20041;-57
2021/01/09 11:08:57;;;;;;;52.30;27.25;;;1.70;99.90;;;;;;6397189;22;20035;-57
2021/01/09 11:11:22;;;;;;;53.92;26.60;;;1.70;99.90;;;;;;6398019;22;20016;-59
2021/01/09 11:13:48;;;;;;;48.55;26.77;;;1.80;99.90;;;;;;6399440;22;20008;-59
2021/01/09 11:16:22;;;;;;;46.80;25.45;;;1.80;99.90;;;;;;6399378;22;20006;-57
2021/01/09 11:18:48;;;;;;;47.17;25.17;;;2.00;99.90;;;;;;6397722;22;20013;-57
2021/01/09 11:21:19;;;;;;;52.80;26.35;;;2.10;99.90;;;;;;6399234;22;20006;-57
2021/01/09 11:23:46;;;;;;;46.58;24.50;;;2.10;99.90;;;;;;6399261;22;20041;-57
2021/01/09 11:26:12;;;;;;;46.53;24.73;;;2.20;99.90;;;;;;6399227;22;20006;-57
2021/01/09 11:28:38;;;;;;;44.13;24.98;;;2.30;99.90;;;;;;6399571;22;20089;-57
2021/01/09 11:31:07;;;;;;;44.25;22.85;;;2.40;99.90;;;;;;6399045;22;20006;-57
2021/01/09 11:33:33;;;;;;;46.00;23.23;;;2.40;99.90;;;;;;6399163;22;20056;-57
2021/01/09 11:35:59;;;;;;;45.00;23.75;;;2.40;99.90;;;;;;6399120;22;20431;-57
2021/01/09 11:38:26;;;;;;;48.45;24.17;;;2.50;99.90;;;;;;6399004;22;20013;-57
2021/01/09 11:40:52;;;;;;;42.35;22.17;;;2.50;99.90;;;;;;6399095;22;20002;-57
2021/01/09 11:43:18;;;;;;;43.65;21.88;;;2.60;99.90;;;;;;6399295;22;20010;-57
2021/01/09 11:45:43;;;;;;;45.67;23.52;;;2.50;99.90;;;;;;6398829;22;20417;-57
2021/01/09 11:48:09;;;;;;;37.35;20.40;;;2.50;99.90;;;;;;6397367;22;20092;-57
2021/01/09 11:50:35;;;;;;;40.20;22.25;;;2.40;99.90;;;;;;6398932;22;20343;-57
2021/01/09 11:53:01;;;;;;;38.85;22.15;;;2.30;99.90;;;;;;6398924;22;20013;-57
2021/01/09 11:55:27;;;;;;;40.05;21.58;;;2.30;99.90;;;;;;6399135;22;20099;-57
2021/01/09 11:57:52;;;;;;;42.22;22.98;;;2.30;99.90;;;;;;6399136;22;20386;-57
2021/01/09 12:00:20;;;;;;;41.42;22.50;;;2.20;99.90;;;;;;6398996;22;20002;-57
2021/01/09 12:02:46;;;;;;;36.00;20.83;;;2.20;99.90;;;;;;6399222;22;20490;-57
2021/01/09 12:05:11;;;;;;;38.78;21.25;;;2.20;99.90;;;;;;6398916;22;20040;-56
2021/01/09 12:07:37;;;;;;;40.67;22.38;;;2.20;99.90;;;;;;6398728;22;20081;-57
2021/01/09 12:10:07;;;;;;;41.00;22.40;;;2.10;99.90;;;;;;6398829;22;20085;-57
2021/01/09 12:12:33;;;;;;;41.20;23.30;;;2.10;99.90;;;;;;6398838;22;19998;-57
2021/01/09 12:14:59;;;;;;;42.58;22.98;;;2.10;99.90;;;;;;6397146;22;20080;-57
2021/01/09 12:17:25;;;;;;;40.97;23.08;;;2.10;99.90;;;;;;6398879;22;20510;-57
2021/01/09 12:19:51;;;;;;;38.65;20.92;;;2.10;99.90;;;;;;6398747;22;20002;-57
2021/01/09 12:22:17;;;;;;;45.25;23.00;;;2.10;99.90;;;;;;6394007;22;20047;-58
2021/01/09 12:24:42;;;;;;;40.22;22.83;;;2.00;99.90;;;;;;6398352;22;20013;-58
2021/01/09 12:27:09;;;;;;;43.63;23.60;;;2.10;99.90;;;;;;6398643;22;20010;-57
2021/01/09 12:29:34;;;;;;;42.60;21.55;;;2.00;99.90;;;;;;6398532;22;20009;-57
2021/01/09 12:32:01;;;;;;;37.50;20.90;;;2.00;99.90;;;;;;6398554;22;20504;-58
2021/01/09 12:34:27;;;;;;;42.30;22.38;;;2.00;99.90;;;;;;6398344;22;20009;-58
2021/01/09 12:36:53;;;;;;;45.38;22.80;;;1.90;99.90;;;;;;6398428;22;20010;-58